sensor_id;sensor_type;location;lat;lon;timestamp;temperature;humidity
40323;DHT22;26030;51.164;17.100;2023-02-28T00:02:16;21.80;53.30
40323;DHT22;26030;51.164;17.100;2023-02-28T00:07:23;21.70;53.50
40323;DHT22;26030;51.164;17.100;2023-02-28T00:12:27;21.70;53.60
40323;DHT22;26030;51.164;17.100;2023-02-28T00:17:31;21.70;53.70
40323;DHT22;26030;51.164;17.100;2023-02-28T00:22:36;21.60;53.70
40323;DHT22;26030;51.164;17.100;2023-02-28T00:27:45;21.60;53.60
40323;DHT22;26030;51.164;17.100;2023-02-28T00:32:50;21.80;53.20
40323;DHT22;26030;51.164;17.100;2023-02-28T00:37:54;22.10;52.80
40323;DHT22;26030;51.164;17.100;2023-02-28T00:42:59;22.40;52.10
40323;DHT22;26030;51.164;17.100;2023-02-28T00:48:03;22.70;51.00
40323;DHT22;26030;51.164;17.100;2023-02-28T00:53:07;22.90;50.50
40323;DHT22;26030;51.164;17.100;2023-02-28T00:58:11;23.00;50.20
40323;DHT22;26030;51.164;17.100;2023-02-28T01:03:17;22.90;50.20
40323;DHT22;26030;51.164;17.100;2023-02-28T01:08:22;23.00;50.30
40323;DHT22;26030;51.164;17.100;2023-02-28T01:13:26;23.00;50.20
40323;DHT22;26030;51.164;17.100;2023-02-28T01:18:30;23.00;50.10
40323;DHT22;26030;51.164;17.100;2023-02-28T01:23:35;23.10;50.00
40323;DHT22;26030;51.164;17.100;2023-02-28T01:28:39;23.10;49.80
40323;DHT22;26030;51.164;17.100;2023-02-28T01:33:44;23.20;49.70
40323;DHT22;26030;51.164;17.100;2023-02-28T01:38:49;23.30;49.60
40323;DHT22;26030;51.164;17.100;2023-02-28T01:43:55;23.30;49.40
40323;DHT22;26030;51.164;17.100;2023-02-28T01:49:04;23.30;48.90
40323;DHT22;26030;51.164;17.100;2023-02-28T01:54:12;23.30;49.20
40323;DHT22;26030;51.164;17.100;2023-02-28T01:59:21;23.40;49.10
40323;DHT22;26030;51.164;17.100;2023-02-28T02:04:35;23.40;49.00
40323;DHT22;26030;51.164;17.100;2023-02-28T02:09:43;23.50;49.00
40323;DHT22;26030;51.164;17.100;2023-02-28T02:14:51;23.60;48.80
40323;DHT22;26030;51.164;17.100;2023-02-28T02:36:42;23.60;48.60
40323;DHT22;26030;51.164;17.100;2023-02-28T02:41:55;23.50;49.10
40323;DHT22;26030;51.164;17.100;2023-02-28T02:47:06;23.50;48.80
40323;DHT22;26030;51.164;17.100;2023-02-28T02:52:14;23.40;49.20
40323;DHT22;26030;51.164;17.100;2023-02-28T02:57:27;23.30;49.40
40323;DHT22;26030;51.164;17.100;2023-02-28T03:02:37;23.10;49.50
40323;DHT22;26030;51.164;17.100;2023-02-28T03:07:43;23.00;50.00
40323;DHT22;26030;51.164;17.100;2023-02-28T03:12:50;22.90;51.00
40323;DHT22;26030;51.164;17.100;2023-02-28T03:18:24;22.90;50.50
40323;DHT22;26030;51.164;17.100;2023-02-28T03:29:35;22.60;50.70
40323;DHT22;26030;51.164;17.100;2023-02-28T03:35:18;22.50;50.50
40323;DHT22;26030;51.164;17.100;2023-02-28T03:40:17;22.40;50.80
40323;DHT22;26030;51.164;17.100;2023-02-28T03:45:26;22.30;51.00
40323;DHT22;26030;51.164;17.100;2023-02-28T03:50:38;22.30;50.90
40323;DHT22;26030;51.164;17.100;2023-02-28T03:55:48;22.20;51.10
40323;DHT22;26030;51.164;17.100;2023-02-28T04:01:02;22.00;51.20
40323;DHT22;26030;51.164;17.100;2023-02-28T04:06:16;22.00;51.30
40323;DHT22;26030;51.164;17.100;2023-02-28T04:11:28;21.90;51.40
40323;DHT22;26030;51.164;17.100;2023-02-28T04:16:39;21.80;51.80
40323;DHT22;26030;51.164;17.100;2023-02-28T04:21:46;21.70;51.60
40323;DHT22;26030;51.164;17.100;2023-02-28T04:26:52;21.90;51.30
40323;DHT22;26030;51.164;17.100;2023-02-28T04:31:58;22.20;51.10
40323;DHT22;26030;51.164;17.100;2023-02-28T04:37:04;22.50;50.50
40323;DHT22;26030;51.164;17.100;2023-02-28T04:42:16;22.60;50.00
40323;DHT22;26030;51.164;17.100;2023-02-28T04:47:20;22.80;49.60
40323;DHT22;26030;51.164;17.100;2023-02-28T04:52:24;22.90;49.40
40323;DHT22;26030;51.164;17.100;2023-02-28T04:57:28;23.00;49.10
40323;DHT22;26030;51.164;17.100;2023-02-28T05:02:34;23.10;49.30
40323;DHT22;26030;51.164;17.100;2023-02-28T05:07:39;23.10;49.00
40323;DHT22;26030;51.164;17.100;2023-02-28T05:12:44;23.20;48.70
40323;DHT22;26030;51.164;17.100;2023-02-28T05:17:48;23.30;48.50
40323;DHT22;26030;51.164;17.100;2023-02-28T05:22:52;23.30;48.50
40323;DHT22;26030;51.164;17.100;2023-02-28T05:27:56;23.30;48.70
40323;DHT22;26030;51.164;17.100;2023-02-28T05:33:00;23.30;48.20
40323;DHT22;26030;51.164;17.100;2023-02-28T05:38:04;23.40;48.60
40323;DHT22;26030;51.164;17.100;2023-02-28T05:43:12;23.40;48.20
40323;DHT22;26030;51.164;17.100;2023-02-28T05:48:16;23.50;48.10
40323;DHT22;26030;51.164;17.100;2023-02-28T05:53:21;23.50;48.00
40323;DHT22;26030;51.164;17.100;2023-02-28T05:58:26;23.50;48.40
40323;DHT22;26030;51.164;17.100;2023-02-28T06:03:34;23.60;48.00
40323;DHT22;26030;51.164;17.100;2023-02-28T06:08:39;23.60;48.10
40323;DHT22;26030;51.164;17.100;2023-02-28T06:13:43;23.70;48.10
40323;DHT22;26030;51.164;17.100;2023-02-28T06:18:47;23.70;47.80
40323;DHT22;26030;51.164;17.100;2023-02-28T06:23:51;23.70;48.20
40323;DHT22;26030;51.164;17.100;2023-02-28T06:28:56;23.60;47.80
40323;DHT22;26030;51.164;17.100;2023-02-28T06:34:00;23.60;48.00
40323;DHT22;26030;51.164;17.100;2023-02-28T06:39:04;23.50;48.00
40323;DHT22;26030;51.164;17.100;2023-02-28T06:44:12;23.30;48.10
40323;DHT22;26030;51.164;17.100;2023-02-28T06:49:21;23.10;48.70
40323;DHT22;26030;51.164;17.100;2023-02-28T06:54:25;23.00;48.90
40323;DHT22;26030;51.164;17.100;2023-02-28T06:59:29;22.90;49.50
40323;DHT22;26030;51.164;17.100;2023-02-28T07:04:34;22.70;50.10
40323;DHT22;26030;51.164;17.100;2023-02-28T07:09:38;22.70;50.20
40323;DHT22;26030;51.164;17.100;2023-02-28T07:14:43;22.70;51.00
40323;DHT22;26030;51.164;17.100;2023-02-28T07:19:47;22.70;50.60
40323;DHT22;26030;51.164;17.100;2023-02-28T07:24:51;22.70;50.30
40323;DHT22;26030;51.164;17.100;2023-02-28T07:29:55;22.70;51.00
40323;DHT22;26030;51.164;17.100;2023-02-28T07:35:00;22.70;50.80
40323;DHT22;26030;51.164;17.100;2023-02-28T07:40:05;22.80;50.30
40323;DHT22;26030;51.164;17.100;2023-02-28T07:45:16;22.60;49.80
40323;DHT22;26030;51.164;17.100;2023-02-28T07:50:21;22.30;50.60
40323;DHT22;26030;51.164;17.100;2023-02-28T07:55:28;22.30;51.40
40323;DHT22;26030;51.164;17.100;2023-02-28T08:00:32;22.50;50.40
40323;DHT22;26030;51.164;17.100;2023-02-28T08:05:38;22.40;50.60
40323;DHT22;26030;51.164;17.100;2023-02-28T08:10:43;22.40;51.40
40323;DHT22;26030;51.164;17.100;2023-02-28T08:15:47;22.20;51.20
40323;DHT22;26030;51.164;17.100;2023-02-28T08:20:51;22.20;51.00
40323;DHT22;26030;51.164;17.100;2023-02-28T08:25:56;22.20;50.60
40323;DHT22;26030;51.164;17.100;2023-02-28T08:31:00;22.10;50.80
40323;DHT22;26030;51.164;17.100;2023-02-28T08:36:04;22.00;50.90
40323;DHT22;26030;51.164;17.100;2023-02-28T08:41:10;22.20;50.80
40323;DHT22;26030;51.164;17.100;2023-02-28T08:46:15;22.10;50.70
40323;DHT22;26030;51.164;17.100;2023-02-28T08:51:20;22.10;50.60
40323;DHT22;26030;51.164;17.100;2023-02-28T08:56:31;22.30;50.10
40323;DHT22;26030;51.164;17.100;2023-02-28T09:01:35;22.20;50.70
40323;DHT22;26030;51.164;17.100;2023-02-28T09:06:40;22.30;50.20
40323;DHT22;26030;51.164;17.100;2023-02-28T09:11:44;22.20;50.20
40323;DHT22;26030;51.164;17.100;2023-02-28T09:16:48;22.30;49.80
40323;DHT22;26030;51.164;17.100;2023-02-28T09:21:52;22.40;49.70
40323;DHT22;26030;51.164;17.100;2023-02-28T09:26:56;22.30;49.90
40323;DHT22;26030;51.164;17.100;2023-02-28T09:32:07;22.40;49.80
40323;DHT22;26030;51.164;17.100;2023-02-28T09:37:12;22.30;49.80
40323;DHT22;26030;51.164;17.100;2023-02-28T09:42:21;22.40;49.90
40323;DHT22;26030;51.164;17.100;2023-02-28T09:47:48;22.60;49.60
40323;DHT22;26030;51.164;17.100;2023-02-28T09:52:54;22.60;49.40
40323;DHT22;26030;51.164;17.100;2023-02-28T09:57:59;22.60;49.80
40323;DHT22;26030;51.164;17.100;2023-02-28T10:08:32;22.60;49.40
40323;DHT22;26030;51.164;17.100;2023-02-28T10:13:52;22.60;49.40
40323;DHT22;26030;51.164;17.100;2023-02-28T10:19:26;22.80;48.90
40323;DHT22;26030;51.164;17.100;2023-02-28T10:24:49;22.70;49.00
40323;DHT22;26030;51.164;17.100;2023-02-28T10:30:00;22.70;49.00
40323;DHT22;26030;51.164;17.100;2023-02-28T10:40:32;22.70;49.10
40323;DHT22;26030;51.164;17.100;2023-02-28T10:45:38;22.80;48.90
40323;DHT22;26030;51.164;17.100;2023-02-28T10:50:55;22.80;49.10
40323;DHT22;26030;51.164;17.100;2023-02-28T10:56:04;22.90;49.00
40323;DHT22;26030;51.164;17.100;2023-02-28T11:01:13;22.80;48.90
40323;DHT22;26030;51.164;17.100;2023-02-28T11:06:23;22.80;49.10
40323;DHT22;26030;51.164;17.100;2023-02-28T11:11:41;22.80;49.30
40323;DHT22;26030;51.164;17.100;2023-02-28T11:16:47;23.00;49.30
40323;DHT22;26030;51.164;17.100;2023-02-28T11:21:59;23.10;48.80
40323;DHT22;26030;51.164;17.100;2023-02-28T11:27:05;23.10;48.90
40323;DHT22;26030;51.164;17.100;2023-02-28T11:32:16;23.20;48.60
40323;DHT22;26030;51.164;17.100;2023-02-28T11:37:23;23.10;48.90
40323;DHT22;26030;51.164;17.100;2023-02-28T12:10:03;23.50;48.00
40323;DHT22;26030;51.164;17.100;2023-02-28T12:21:31;23.40;47.70
40323;DHT22;26030;51.164;17.100;2023-02-28T12:26:36;23.40;47.70
40323;DHT22;26030;51.164;17.100;2023-02-28T12:32:07;23.40;47.50
40323;DHT22;26030;51.164;17.100;2023-02-28T12:37:24;23.20;48.00
40323;DHT22;26030;51.164;17.100;2023-02-28T12:43:08;23.20;47.60
40323;DHT22;26030;51.164;17.100;2023-02-28T12:48:11;23.30;47.30
40323;DHT22;26030;51.164;17.100;2023-02-28T12:53:25;23.20;47.30
40323;DHT22;26030;51.164;17.100;2023-02-28T12:58:43;23.10;47.70
40323;DHT22;26030;51.164;17.100;2023-02-28T13:09:17;23.10;47.50
40323;DHT22;26030;51.164;17.100;2023-02-28T13:14:28;23.10;47.50
40323;DHT22;26030;51.164;17.100;2023-02-28T13:19:34;23.10;47.50
40323;DHT22;26030;51.164;17.100;2023-02-28T13:24:45;23.10;47.60
40323;DHT22;26030;51.164;17.100;2023-02-28T13:29:53;23.10;47.50
40323;DHT22;26030;51.164;17.100;2023-02-28T13:45:33;23.00;47.50
40323;DHT22;26030;51.164;17.100;2023-02-28T13:50:43;23.00;47.80
40323;DHT22;26030;51.164;17.100;2023-02-28T13:55:52;23.00;47.30
40323;DHT22;26030;51.164;17.100;2023-02-28T14:11:35;22.90;47.40
40323;DHT22;26030;51.164;17.100;2023-02-28T14:22:54;22.90;47.30
40323;DHT22;26030;51.164;17.100;2023-02-28T14:27:40;22.80;47.30
40323;DHT22;26030;51.164;17.100;2023-02-28T14:38:33;22.80;47.20
40323;DHT22;26030;51.164;17.100;2023-02-28T14:43:53;22.70;47.40
40323;DHT22;26030;51.164;17.100;2023-02-28T14:49:01;22.70;47.30
40323;DHT22;26030;51.164;17.100;2023-02-28T14:54:12;22.70;47.60
40323;DHT22;26030;51.164;17.100;2023-02-28T14:59:29;22.70;47.40
40323;DHT22;26030;51.164;17.100;2023-02-28T15:04:38;22.60;47.60
40323;DHT22;26030;51.164;17.100;2023-02-28T15:09:42;22.50;47.40
40323;DHT22;26030;51.164;17.100;2023-02-28T15:14:46;22.30;47.70
40323;DHT22;26030;51.164;17.100;2023-02-28T15:19:55;22.20;47.70
40323;DHT22;26030;51.164;17.100;2023-02-28T15:25:00;22.20;47.80
40323;DHT22;26030;51.164;17.100;2023-02-28T15:30:08;22.10;48.10
40323;DHT22;26030;51.164;17.100;2023-02-28T15:35:27;22.10;47.80
40323;DHT22;26030;51.164;17.100;2023-02-28T15:40:38;22.10;47.80
40323;DHT22;26030;51.164;17.100;2023-02-28T15:45:59;22.00;47.90
40323;DHT22;26030;51.164;17.100;2023-02-28T15:56:25;21.90;48.40
40323;DHT22;26030;51.164;17.100;2023-02-28T16:01:36;21.90;48.30
40323;DHT22;26030;51.164;17.100;2023-02-28T16:12:02;22.60;47.20
40323;DHT22;26030;51.164;17.100;2023-02-28T16:17:19;22.80;46.60
40323;DHT22;26030;51.164;17.100;2023-02-28T16:22:25;22.90;46.10
40323;DHT22;26030;51.164;17.100;2023-02-28T16:27:31;23.00;46.40
40323;DHT22;26030;51.164;17.100;2023-02-28T16:32:39;23.00;46.40
40323;DHT22;26030;51.164;17.100;2023-02-28T16:37:44;23.20;45.90
40323;DHT22;26030;51.164;17.100;2023-02-28T16:42:49;23.40;45.40
40323;DHT22;26030;51.164;17.100;2023-02-28T16:47:59;23.40;44.80
40323;DHT22;26030;51.164;17.100;2023-02-28T16:53:03;23.30;44.60
40323;DHT22;26030;51.164;17.100;2023-02-28T16:58:11;23.40;44.70
40323;DHT22;26030;51.164;17.100;2023-02-28T17:03:20;23.40;44.50
40323;DHT22;26030;51.164;17.100;2023-02-28T17:08:39;23.40;44.80
40323;DHT22;26030;51.164;17.100;2023-02-28T17:13:44;23.50;44.50
40323;DHT22;26030;51.164;17.100;2023-02-28T17:18:51;23.50;44.70
40323;DHT22;26030;51.164;17.100;2023-02-28T17:23:58;23.70;44.00
40323;DHT22;26030;51.164;17.100;2023-02-28T17:29:05;23.60;44.90
40323;DHT22;26030;51.164;17.100;2023-02-28T17:34:17;23.50;45.20
40323;DHT22;26030;51.164;17.100;2023-02-28T17:39:23;23.40;47.70
40323;DHT22;26030;51.164;17.100;2023-02-28T17:44:29;23.30;47.60
40323;DHT22;26030;51.164;17.100;2023-02-28T17:49:33;23.50;47.70
40323;DHT22;26030;51.164;17.100;2023-02-28T17:54:38;23.40;46.90
40323;DHT22;26030;51.164;17.100;2023-02-28T17:59:44;23.30;47.00
40323;DHT22;26030;51.164;17.100;2023-02-28T18:04:49;23.10;47.60
40323;DHT22;26030;51.164;17.100;2023-02-28T18:09:54;23.10;47.60
40323;DHT22;26030;51.164;17.100;2023-02-28T18:15:00;23.10;47.50
40323;DHT22;26030;51.164;17.100;2023-02-28T18:20:06;23.00;47.70
40323;DHT22;26030;51.164;17.100;2023-02-28T18:25:14;22.70;47.80
40323;DHT22;26030;51.164;17.100;2023-02-28T18:30:26;22.50;47.60
40323;DHT22;26030;51.164;17.100;2023-02-28T18:35:40;22.50;47.50
40323;DHT22;26030;51.164;17.100;2023-02-28T18:40:52;22.50;47.40
40323;DHT22;26030;51.164;17.100;2023-02-28T18:46:04;22.50;47.80
40323;DHT22;26030;51.164;17.100;2023-02-28T18:51:19;22.50;47.30
40323;DHT22;26030;51.164;17.100;2023-02-28T18:56:26;22.40;47.50
40323;DHT22;26030;51.164;17.100;2023-02-28T19:01:33;22.30;47.70
40323;DHT22;26030;51.164;17.100;2023-02-28T19:06:40;22.20;47.70
40323;DHT22;26030;51.164;17.100;2023-02-28T19:11:48;22.20;47.70
40323;DHT22;26030;51.164;17.100;2023-02-28T19:16:58;22.20;47.50
40323;DHT22;26030;51.164;17.100;2023-02-28T19:22:04;22.00;47.40
40323;DHT22;26030;51.164;17.100;2023-02-28T19:27:11;22.00;47.50
40323;DHT22;26030;51.164;17.100;2023-02-28T19:32:17;21.90;47.40
40323;DHT22;26030;51.164;17.100;2023-02-28T19:37:24;21.90;47.40
40323;DHT22;26030;51.164;17.100;2023-02-28T19:42:32;21.90;48.10
40323;DHT22;26030;51.164;17.100;2023-02-28T19:47:39;21.80;48.20
40323;DHT22;26030;51.164;17.100;2023-02-28T19:52:52;21.70;47.80
40323;DHT22;26030;51.164;17.100;2023-02-28T19:58:03;21.70;47.80
40323;DHT22;26030;51.164;17.100;2023-02-28T20:03:09;21.60;48.70
40323;DHT22;26030;51.164;17.100;2023-02-28T20:08:18;21.60;48.60
40323;DHT22;26030;51.164;17.100;2023-02-28T20:13:27;21.60;48.70
40323;DHT22;26030;51.164;17.100;2023-02-28T20:18:33;21.60;48.60
40323;DHT22;26030;51.164;17.100;2023-02-28T20:23:39;21.50;48.30
40323;DHT22;26030;51.164;17.100;2023-02-28T20:28:46;21.80;47.50
40323;DHT22;26030;51.164;17.100;2023-02-28T20:33:51;22.20;46.60
40323;DHT22;26030;51.164;17.100;2023-02-28T20:38:58;22.50;45.40
40323;DHT22;26030;51.164;17.100;2023-02-28T20:44:04;22.70;44.80
40323;DHT22;26030;51.164;17.100;2023-02-28T20:49:11;22.80;44.20
40323;DHT22;26030;51.164;17.100;2023-02-28T20:54:19;22.60;47.30
40323;DHT22;26030;51.164;17.100;2023-02-28T20:59:26;22.50;48.10
40323;DHT22;26030;51.164;17.100;2023-02-28T21:04:33;22.50;48.30
40323;DHT22;26030;51.164;17.100;2023-02-28T21:09:39;22.60;48.90
40323;DHT22;26030;51.164;17.100;2023-02-28T21:14:44;22.60;48.60
40323;DHT22;26030;51.164;17.100;2023-02-28T21:19:48;22.60;49.20
40323;DHT22;26030;51.164;17.100;2023-02-28T21:24:53;22.60;49.00
40323;DHT22;26030;51.164;17.100;2023-02-28T21:29:57;22.50;48.90
40323;DHT22;26030;51.164;17.100;2023-02-28T21:35:02;22.50;49.30
40323;DHT22;26030;51.164;17.100;2023-02-28T21:40:06;22.50;49.50
40323;DHT22;26030;51.164;17.100;2023-02-28T21:45:11;22.50;49.50
40323;DHT22;26030;51.164;17.100;2023-02-28T21:50:15;22.50;49.50
40323;DHT22;26030;51.164;17.100;2023-02-28T21:55:20;22.50;49.90
40323;DHT22;26030;51.164;17.100;2023-02-28T22:00:28;22.50;50.10
40323;DHT22;26030;51.164;17.100;2023-02-28T22:05:34;22.30;49.50
40323;DHT22;26030;51.164;17.100;2023-02-28T22:10:39;22.40;51.50
40323;DHT22;26030;51.164;17.100;2023-02-28T22:15:47;22.40;51.30
40323;DHT22;26030;51.164;17.100;2023-02-28T22:20:57;22.50;51.30
40323;DHT22;26030;51.164;17.100;2023-02-28T22:26:05;22.50;51.40
40323;DHT22;26030;51.164;17.100;2023-02-28T22:36:22;22.70;52.20
40323;DHT22;26030;51.164;17.100;2023-02-28T22:41:27;22.70;52.60
40323;DHT22;26030;51.164;17.100;2023-02-28T22:46:31;22.80;52.80
40323;DHT22;26030;51.164;17.100;2023-02-28T22:51:37;22.80;52.80
40323;DHT22;26030;51.164;17.100;2023-02-28T22:56:41;22.80;53.50
40323;DHT22;26030;51.164;17.100;2023-02-28T23:01:45;22.80;53.20
40323;DHT22;26030;51.164;17.100;2023-02-28T23:06:49;22.70;53.60
40323;DHT22;26030;51.164;17.100;2023-02-28T23:11:53;22.60;54.00
40323;DHT22;26030;51.164;17.100;2023-02-28T23:16:59;22.60;54.10
40323;DHT22;26030;51.164;17.100;2023-02-28T23:22:04;22.50;54.10
40323;DHT22;26030;51.164;17.100;2023-02-28T23:27:09;22.50;54.00
40323;DHT22;26030;51.164;17.100;2023-02-28T23:32:14;22.60;54.20
40323;DHT22;26030;51.164;17.100;2023-02-28T23:37:18;22.60;53.90
40323;DHT22;26030;51.164;17.100;2023-02-28T23:42:23;22.60;54.00
40323;DHT22;26030;51.164;17.100;2023-02-28T23:47:27;22.50;53.80
40323;DHT22;26030;51.164;17.100;2023-02-28T23:52:33;22.50;53.60
40323;DHT22;26030;51.164;17.100;2023-02-28T23:57:37;22.40;53.30
